Time;durP1;ratioP1;P1;durP2;ratioP2;P2;SDS_P1;SDS_P2;PMS_P1;PMS_P2;Temp;Humidity;BMP_temperature;BMP_pressure;BME280_temperature;BME280_humidity;BME280_pressure;Samples;Min_cycle;Max_cycle;Signal;HPM_P1;HPM_P2
2022/09/26 00:00:35;;;;;;;10.75;5.88;;;;;;;;;;5100325;28;20047;-67
2022/09/26 00:03:00;;;;;;;9.30;6.18;;;;;;;;;;5101361;28;20029;-68
2022/09/26 00:05:25;;;;;;;9.48;6.32;;;;;;;;;;5116557;28;20027;-67
2022/09/26 00:07:50;;;;;;;8.87;6.50;;;;;;;;;;5114982;28;20516;-69
2022/09/26 00:10:16;;;;;;;8.07;6.13;;;;;;;;;;5118635;28;20276;-70
2022/09/26 00:12:41;;;;;;;8.68;6.80;;;;;;;;;;5117662;28;20737;-67
2022/09/26 00:15:07;;;;;;;13.00;6.00;;;;;;;;;;5116341;27;20526;-67
2022/09/26 00:17:32;;;;;;;9.73;6.75;;;;;;;;;;5122225;27;20027;-67
2022/09/26 00:19:57;;;;;;;9.20;6.53;;;;;;;;;;5120243;27;20038;-67
2022/09/26 00:22:22;;;;;;;9.50;6.20;;;;;;;;;;5123516;27;20815;-67
2022/09/26 00:24:47;;;;;;;10.40;6.20;;;;;;;;;;5103889;27;20344;-67
2022/09/26 00:27:13;;;;;;;9.87;6.70;;;;;;;;;;5127085;27;20355;-67
2022/09/26 00:29:38;;;;;;;9.18;6.50;;;;;;;;;;5109911;27;20150;-68
2022/09/26 00:32:03;;;;;;;8.00;6.73;;;;;;;;;;5128507;27;20054;-67
2022/09/26 00:34:29;;;;;;;8.33;6.30;;;;;;;;;;5121911;27;20389;-68
2022/09/26 00:36:54;;;;;;;10.48;6.20;;;;;;;;;;5122287;27;20322;-67
2022/09/26 00:39:19;;;;;;;12.35;6.53;;;;;;;;;;5124277;27;20098;-67
2022/09/26 00:41:44;;;;;;;7.77;6.10;;;;;;;;;;5123883;27;20038;-67
2022/09/26 00:44:28;;;;;;;8.88;6.78;;;;;;;;;;5122028;27;20031;-67
2022/09/26 00:46:53;;;;;;;9.07;6.60;;;;;;;;;;5126179;27;20027;-67
2022/09/26 00:49:22;;;;;;;11.57;6.90;;;;;;;;;;5111615;27;20069;-70
2022/09/26 00:51:49;;;;;;;10.55;6.90;;;;;;;;;;5116649;27;20032;-67
2022/09/26 00:54:16;;;;;;;11.52;7.13;;;;;;;;;;5122986;27;20019;-69
2022/09/26 00:56:43;;;;;;;10.57;6.40;;;;;;;;;;5118176;27;20038;-67
2022/09/26 00:59:08;;;;;;;9.52;6.75;;;;;;;;;;5117500;27;20031;-67
2022/09/26 01:01:33;;;;;;;9.53;6.60;;;;;;;;;;5121130;27;20133;-67
2022/09/26 01:04:00;;;;;;;7.77;6.23;;;;;;;;;;5120502;27;20030;-66
2022/09/26 01:06:26;;;;;;;9.73;6.10;;;;;;;;;;5122011;27;20286;-67
2022/09/26 01:08:54;;;;;;;9.43;6.88;;;;;;;;;;5119152;27;20661;-66
2022/09/26 01:11:19;;;;;;;13.02;6.63;;;;;;;;;;5122343;27;20027;-67
2022/09/26 01:13:45;;;;;;;9.18;6.93;;;;;;;;;;5116101;27;20038;-67
2022/09/26 01:16:10;;;;;;;7.82;6.13;;;;;;;;;;5123138;27;20015;-70
2022/09/26 01:18:35;;;;;;;10.33;6.70;;;;;;;;;;5122204;27;20035;-68
2022/09/26 01:21:03;;;;;;;7.85;6.22;;;;;;;;;;5121715;27;20373;-67
2022/09/26 01:23:35;;;;;;;8.70;5.75;;;;;;;;;;5106726;27;20454;-68
2022/09/26 01:26:19;;;;;;;9.60;6.00;;;;;;;;;;5119826;27;20114;-67
2022/09/26 01:28:47;;;;;;;7.43;5.95;;;;;;;;;;5126432;27;20069;-67
2022/09/26 01:31:21;;;;;;;8.07;5.30;;;;;;;;;;5110037;27;20030;-67
2022/09/26 01:33:46;;;;;;;8.07;4.90;;;;;;;;;;5106111;27;20031;-67
2022/09/26 01:36:17;;;;;;;7.33;5.40;;;;;;;;;;5121137;27;20026;-67
2022/09/26 01:38:43;;;;;;;6.40;5.15;;;;;;;;;;5122500;27;20019;-67
2022/09/26 01:41:27;;;;;;;6.65;4.90;;;;;;;;;;5119607;27;20023;-68
2022/09/26 01:43:55;;;;;;;6.70;5.15;;;;;;;;;;5101896;27;20481;-68
2022/09/26 01:46:30;;;;;;;7.13;4.65;;;;;;;;;;5120023;27;20556;-68
2022/09/26 01:49:10;;;;;;;11.32;5.32;;;;;;;;;;5117539;27;20765;-67
2022/09/26 01:51:40;;;;;;;6.75;4.55;;;;;;;;;;5119982;27;20028;-68
2022/09/26 01:54:08;;;;;;;7.38;5.07;;;;;;;;;;5119996;27;20041;-68
2022/09/26 01:56:35;;;;;;;8.07;5.30;;;;;;;;;;5116690;27;20027;-67
2022/09/26 01:59:13;;;;;;;8.32;5.05;;;;;;;;;;5113426;27;20046;-67
2022/09/26 02:01:40;;;;;;;6.50;5.25;;;;;;;;;;5117708;27;20580;-67
2022/09/26 02:04:11;;;;;;;8.38;5.13;;;;;;;;;;5117409;27;20051;-69
2022/09/26 02:06:39;;;;;;;6.85;4.82;;;;;;;;;;5113502;27;20028;-69
2022/09/26 02:09:13;;;;;;;7.47;4.83;;;;;;;;;;5118377;27;20026;-68
2022/09/26 02:11:40;;;;;;;6.68;5.35;;;;;;;;;;5118991;27;20035;-68
2022/09/26 02:14:07;;;;;;;5.25;4.75;;;;;;;;;;5125443;27;20083;-69
2022/09/26 02:16:59;;;;;;;9.95;5.45;;;;;;;;;;5119234;27;20037;-69
2022/09/26 02:19:26;;;;;;;8.35;5.50;;;;;;;;;;5105271;28;20043;-70
2022/09/26 02:21:52;;;;;;;7.50;5.30;;;;;;;;;;5118599;27;20168;-68
2022/09/26 02:24:17;;;;;;;6.40;5.15;;;;;;;;;;5120772;27;20537;-69
2022/09/26 02:26:42;;;;;;;7.90;5.00;;;;;;;;;;5119897;27;20520;-69
2022/09/26 02:29:08;;;;;;;8.45;5.22;;;;;;;;;;5120409;27;20275;-69
2022/09/26 02:31:37;;;;;;;9.30;5.53;;;;;;;;;;5115189;27;20397;-68
2022/09/26 02:34:02;;;;;;;7.60;5.20;;;;;;;;;;5121848;27;20080;-68
2022/09/26 02:36:32;;;;;;;7.57;5.20;;;;;;;;;;5121646;27;20024;-68
2022/09/26 02:38:58;;;;;;;7.82;5.45;;;;;;;;;;5116595;27;20055;-68
2022/09/26 02:41:44;;;;;;;7.28;5.55;;;;;;;;;;5107424;27;20477;-69
2022/09/26 02:44:28;;;;;;;8.18;6.18;;;;;;;;;;5119514;27;20035;-67
2022/09/26 02:47:20;;;;;;;10.60;8.07;;;;;;;;;;5120243;27;20030;-69
2022/09/26 02:49:45;;;;;;;11.50;5.85;;;;;;;;;;5083066;27;20143;-69
2022/09/26 02:52:17;;;;;;;9.75;6.00;;;;;;;;;;5121360;27;20106;-69
2022/09/26 02:54:52;;;;;;;8.93;6.03;;;;;;;;;;5116654;27;20500;-69
2022/09/26 02:57:17;;;;;;;9.88;6.20;;;;;;;;;;5119960;27;20027;-69
2022/09/26 02:59:59;;;;;;;9.07;6.20;;;;;;;;;;5119202;27;20107;-69
2022/09/26 03:02:33;;;;;;;9.10;5.95;;;;;;;;;;5116713;27;20031;-68
2022/09/26 03:05:09;;;;;;;8.70;5.85;;;;;;;;;;5124235;27;20058;-68
2022/09/26 03:07:40;;;;;;;7.65;5.72;;;;;;;;;;5115855;27;20027;-67
2022/09/26 03:10:07;;;;;;;8.30;6.13;;;;;;;;;;5115956;27;20077;-68
2022/09/26 03:12:33;;;;;;;7.57;6.30;;;;;;;;;;5104164;28;20027;-68
2022/09/26 03:15:00;;;;;;;7.45;6.22;;;;;;;;;;5121215;27;20024;-67
2022/09/26 03:17:27;;;;;;;10.40;6.38;;;;;;;;;;5118688;27;20034;-68
2022/09/26 03:19:54;;;;;;;8.50;6.70;;;;;;;;;;5121103;27;20037;-67
2022/09/26 03:22:20;;;;;;;10.40;6.60;;;;;;;;;;5120945;27;20030;-67
2022/09/26 03:24:45;;;;;;;8.40;6.20;;;;;;;;;;5118625;27;20070;-68
2022/09/26 03:27:11;;;;;;;8.93;6.00;;;;;;;;;;5121067;28;20051;-68
2022/09/26 03:29:37;;;;;;;9.13;6.55;;;;;;;;;;5120725;28;20267;-68
2022/09/26 03:32:03;;;;;;;8.00;5.95;;;;;;;;;;5118958;28;20374;-67
2022/09/26 03:34:28;;;;;;;8.57;6.15;;;;;;;;;;5119793;28;20026;-68
2022/09/26 03:36:54;;;;;;;7.23;6.23;;;;;;;;;;5114155;28;20389;-67
2022/09/26 03:39:19;;;;;;;8.40;5.50;;;;;;;;;;5112923;28;20034;-68
2022/09/26 03:41:44;;;;;;;10.83;6.23;;;;;;;;;;5121436;28;20278;-68
2022/09/26 03:44:11;;;;;;;8.32;5.93;;;;;;;;;;5119789;28;20472;-67
2022/09/26 03:46:37;;;;;;;9.07;6.22;;;;;;;;;;5104466;28;20039;-68
2022/09/26 03:49:02;;;;;;;13.45;7.32;;;;;;;;;;5113899;28;20478;-68
2022/09/26 03:51:27;;;;;;;9.07;6.18;;;;;;;;;;5118309;27;20016;-68
2022/09/26 03:53:52;;;;;;;10.27;6.60;;;;;;;;;;5121015;27;20534;-68
2022/09/26 03:56:19;;;;;;;9.63;6.30;;;;;;;;;;5125717;27;20033;-69
2022/09/26 03:58:45;;;;;;;10.00;6.30;;;;;;;;;;5125263;27;20796;-67
2022/09/26 04:01:15;;;;;;;8.13;6.57;;;;;;;;;;5122295;27;20035;-68
2022/09/26 04:03:42;;;;;;;11.93;6.95;;;;;;;;;;5118067;27;20522;-68
2022/09/26 04:06:08;;;;;;;10.75;7.00;;;;;;;;;;5120084;27;20057;-69
2022/09/26 04:08:33;;;;;;;9.10;6.93;;;;;;;;;;5122528;27;20097;-69
2022/09/26 04:11:00;;;;;;;10.07;7.35;;;;;;;;;;5121317;27;20077;-68
2022/09/26 04:13:26;;;;;;;11.10;7.25;;;;;;;;;;5122205;27;20045;-67
2022/09/26 04:15:54;;;;;;;9.50;7.07;;;;;;;;;;5118341;27;20015;-67
2022/09/26 04:18:20;;;;;;;8.40;6.65;;;;;;;;;;5123691;27;20089;-67
2022/09/26 04:20:45;;;;;;;7.73;6.40;;;;;;;;;;5122441;27;20020;-67
2022/09/26 04:23:10;;;;;;;8.80;6.67;;;;;;;;;;5116979;27;20028;-67
2022/09/26 04:25:36;;;;;;;9.20;7.07;;;;;;;;;;5110164;27;20043;-67
2022/09/26 04:28:01;;;;;;;8.18;6.53;;;;;;;;;;5107520;27;20477;-68
2022/09/26 04:30:28;;;;;;;10.17;6.57;;;;;;;;;;5119394;27;20023;-68
2022/09/26 04:32:54;;;;;;;10.73;6.68;;;;;;;;;;5117373;27;20320;-66
2022/09/26 04:35:20;;;;;;;9.85;6.50;;;;;;;;;;5117782;27;20110;-67
2022/09/26 04:37:46;;;;;;;14.15;8.23;;;;;;;;;;5126013;27;20034;-67
2022/09/26 04:40:11;;;;;;;10.57;6.72;;;;;;;;;;5120480;27;20129;-67
2022/09/26 04:42:37;;;;;;;14.40;7.40;;;;;;;;;;5121332;27;20475;-67
2022/09/26 04:45:02;;;;;;;10.63;7.10;;;;;;;;;;5120269;27;20275;-66
2022/09/26 04:47:27;;;;;;;9.00;6.95;;;;;;;;;;5120696;27;20019;-68
2022/09/26 04:49:53;;;;;;;10.60;6.65;;;;;;;;;;5117230;27;20032;-68
2022/09/26 04:52:19;;;;;;;9.57;6.72;;;;;;;;;;5124086;27;20019;-68
2022/09/26 04:54:44;;;;;;;11.98;6.43;;;;;;;;;;5117617;27;20039;-68
2022/09/26 04:57:09;;;;;;;11.07;7.57;;;;;;;;;;5120796;27;20023;-67
2022/09/26 04:59:34;;;;;;;8.67;6.60;;;;;;;;;;5103968;27;20286;-67
2022/09/26 05:02:04;;;;;;;8.67;6.70;;;;;;;;;;5122230;27;20038;-66
2022/09/26 05:04:32;;;;;;;7.82;6.75;;;;;;;;;;5124122;27;20742;-67
2022/09/26 05:06:58;;;;;;;11.95;6.50;;;;;;;;;;5121539;27;20102;-68
2022/09/26 05:09:24;;;;;;;10.55;7.32;;;;;;;;;;5118595;27;20460;-68
2022/09/26 05:11:49;;;;;;;8.40;6.82;;;;;;;;;;5121993;27;20031;-67
2022/09/26 05:14:14;;;;;;;10.03;6.80;;;;;;;;;;5115657;27;20023;-68
2022/09/26 05:16:39;;;;;;;10.53;6.53;;;;;;;;;;5118478;27;20068;-69
2022/09/26 05:19:04;;;;;;;8.70;6.67;;;;;;;;;;5111419;27;20083;-67
2022/09/26 05:21:30;;;;;;;10.80;6.60;;;;;;;;;;5115011;27;20504;-67
2022/09/26 05:26:45;;;;;;;12.40;6.90;;;;;;;;;;5123901;27;20361;-67
2022/09/26 05:29:10;;;;;;;12.25;7.15;;;;;;;;;;5120728;27;20062;-68
2022/09/26 05:31:36;;;;;;;11.77;6.63;;;;;;;;;;5123190;27;20485;-68
2022/09/26 05:34:05;;;;;;;10.70;7.30;;;;;;;;;;5121735;27;20039;-68
2022/09/26 05:36:30;;;;;;;10.45;6.90;;;;;;;;;;5115080;27;20103;-67
2022/09/26 05:38:55;;;;;;;7.72;6.53;;;;;;;;;;5117937;27;20672;-67
2022/09/26 05:41:21;;;;;;;10.57;6.43;;;;;;;;;;5119964;27;20030;-67
2022/09/26 05:43:47;;;;;;;9.98;7.00;;;;;;;;;;5103422;27;20031;-68
2022/09/26 05:46:13;;;;;;;7.75;6.05;;;;;;;;;;5115198;27;20419;-67
2022/09/26 05:48:38;;;;;;;9.98;6.93;;;;;;;;;;5115047;27;20016;-68
2022/09/26 05:51:05;;;;;;;9.35;6.78;;;;;;;;;;5124516;27;20038;-68
2022/09/26 05:53:31;;;;;;;8.10;6.68;;;;;;;;;;5118701;27;20023;-68
2022/09/26 05:55:56;;;;;;;10.82;7.35;;;;;;;;;;5120136;27;20066;-69
2022/09/26 05:58:21;;;;;;;8.37;6.27;;;;;;;;;;5117317;27;20051;-69
2022/09/26 06:00:47;;;;;;;12.63;6.68;;;;;;;;;;5106988;27;20283;-69
2022/09/26 06:03:13;;;;;;;10.95;6.38;;;;;;;;;;5115440;27;20023;-68
2022/09/26 06:05:39;;;;;;;10.18;6.40;;;;;;;;;;5115523;27;20037;-68
2022/09/26 06:08:04;;;;;;;8.80;6.43;;;;;;;;;;5118689;27;20027;-68
2022/09/26 06:10:29;;;;;;;7.47;6.40;;;;;;;;;;5116333;27;20797;-68
2022/09/26 06:12:58;;;;;;;10.48;6.97;;;;;;;;;;5114680;27;20106;-69
2022/09/26 06:15:23;;;;;;;9.80;6.50;;;;;;;;;;5113260;27;20019;-67
2022/09/26 06:17:56;;;;;;;9.80;6.55;;;;;;;;;;5116052;27;20576;-69
2022/09/26 06:20:24;;;;;;;10.30;6.60;;;;;;;;;;5104454;27;20027;-69
2022/09/26 06:22:49;;;;;;;20.25;7.43;;;;;;;;;;5116908;27;20019;-69
2022/09/26 06:25:14;;;;;;;9.52;6.53;;;;;;;;;;5119206;27;20078;-69
2022/09/26 06:27:41;;;;;;;8.50;6.43;;;;;;;;;;5122593;27;20556;-69
2022/09/26 06:30:07;;;;;;;9.60;6.45;;;;;;;;;;5111709;27;20038;-68
2022/09/26 06:32:32;;;;;;;9.45;6.75;;;;;;;;;;5118297;27;20036;-68
2022/09/26 06:34:58;;;;;;;9.52;6.63;;;;;;;;;;5120469;27;20777;-69
2022/09/26 06:37:23;;;;;;;8.27;6.53;;;;;;;;;;5117092;27;20027;-68
2022/09/26 06:39:48;;;;;;;8.63;7.00;;;;;;;;;;5116840;27;20054;-68
2022/09/26 06:42:13;;;;;;;9.93;6.60;;;;;;;;;;5117645;27;20035;-67
2022/09/26 06:44:39;;;;;;;10.93;6.87;;;;;;;;;;5118901;27;20766;-68
2022/09/26 06:47:04;;;;;;;10.07;6.90;;;;;;;;;;5115565;27;20115;-68
2022/09/26 06:49:29;;;;;;;8.97;6.90;;;;;;;;;;5119113;27;20027;-68
2022/09/26 06:51:54;;;;;;;6.90;5.85;;;;;;;;;;5119691;27;20766;-69
2022/09/26 06:54:20;;;;;;;9.73;6.47;;;;;;;;;;5103671;27;20937;-69
2022/09/26 06:56:45;;;;;;;9.83;6.53;;;;;;;;;;5104883;27;20326;-69
2022/09/26 06:59:11;;;;;;;7.73;6.67;;;;;;;;;;5117597;27;20062;-68
2022/09/26 07:01:36;;;;;;;8.63;6.55;;;;;;;;;;5122350;27;20373;-69
2022/09/26 07:04:02;;;;;;;9.73;6.88;;;;;;;;;;5103799;27;20038;-69
2022/09/26 07:06:27;;;;;;;9.82;7.15;;;;;;;;;;5115503;27;20359;-68
2022/09/26 07:08:52;;;;;;;11.37;6.40;;;;;;;;;;5122689;27;20033;-69
2022/09/26 07:11:18;;;;;;;8.70;6.53;;;;;;;;;;5117051;27;20282;-68
2022/09/26 07:13:44;;;;;;;8.68;7.13;;;;;;;;;;5116207;27;20027;-68
2022/09/26 07:16:10;;;;;;;10.93;6.70;;;;;;;;;;5114827;27;20027;-68
2022/09/26 07:18:37;;;;;;;11.95;7.38;;;;;;;;;;5119793;27;20050;-68
2022/09/26 07:21:03;;;;;;;7.28;6.57;;;;;;;;;;5115133;27;20035;-68
2022/09/26 07:23:28;;;;;;;10.00;6.68;;;;;;;;;;5121515;27;20022;-68
2022/09/26 07:25:54;;;;;;;10.93;6.53;;;;;;;;;;5113514;27;20056;-68
2022/09/26 07:28:19;;;;;;;8.18;6.47;;;;;;;;;;5113332;27;20825;-69
2022/09/26 07:30:45;;;;;;;8.00;6.70;;;;;;;;;;5117954;28;20042;-69
2022/09/26 07:33:11;;;;;;;9.10;6.43;;;;;;;;;;5115659;28;20358;-69
2022/09/26 07:35:36;;;;;;;14.23;6.95;;;;;;;;;;5123971;28;20815;-69
2022/09/26 07:38:03;;;;;;;7.07;6.33;;;;;;;16.50;nan;99721.72;5117388;28;20040;-68
2022/09/26 07:40:29;;;;;;;10.48;6.68;;;;;;;;;;5095980;28;20060;-69
2022/09/26 07:42:59;;;;;;;8.85;6.93;;;;;;;16.65;nan;99726.88;5117199;28;20052;-70
2022/09/26 07:50:57;;;;;;;8.35;6.20;;;;;;;;;;5121145;28;20460;-69
2022/09/26 07:53:23;;;;;;;8.32;6.32;;;;;;;;;;5099306;28;20031;-69
2022/09/26 07:58:49;;;;;;;9.73;6.47;;;;;;;;;;5047388;28;20148;-69
2022/09/26 08:01:15;;;;;;;7.93;5.77;;;;;;;;;;5047832;28;20041;-69
2022/09/26 08:03:42;;;;;;;7.95;6.20;;;;;;;;;;5027036;28;20277;-69
2022/09/26 08:06:07;;;;;;;7.28;5.80;;;;;;;;;;5046715;28;20691;-69
2022/09/26 08:08:33;;;;;;;9.98;5.85;;;;;;;;;;5047011;28;20021;-69
2022/09/26 08:10:58;;;;;;;9.23;5.80;;;;;;;;;;5046268;28;20056;-69
2022/09/26 08:13:25;;;;;;;8.50;5.80;;;;;;;;;;5028268;28;20064;-69
2022/09/26 08:15:50;;;;;;;8.70;6.10;;;;;;;;;;5045950;28;20461;-68
2022/09/26 08:18:16;;;;;;;11.88;6.18;;;;;;;;;;5048156;28;20035;-69
2022/09/26 08:20:45;;;;;;;8.05;5.72;;;;;;;;;;5044858;28;20079;-70
2022/09/26 08:23:11;;;;;;;8.30;5.82;;;;;;;;;;5044462;28;20139;-69
2022/09/26 08:25:36;;;;;;;7.72;5.65;;;;;;;;;;5046090;28;20516;-69
2022/09/26 08:28:04;;;;;;;7.10;5.43;;;;;;;;;;5044131;28;20017;-69
2022/09/26 08:30:30;;;;;;;11.27;6.33;;;;;;;;;;5045329;28;20025;-69
2022/09/26 08:32:59;;;;;;;9.30;5.70;;;;;;;;;;5091379;28;20089;-69
2022/09/26 08:35:25;;;;;;;10.15;5.85;;;;;;;;;;5121986;28;20486;-69
2022/09/26 08:37:50;;;;;;;9.50;5.57;;;;;;;;;;5101082;27;20031;-70
2022/09/26 08:40:16;;;;;;;7.20;5.50;;;;;;;;;;5124955;27;20099;-69
2022/09/26 08:42:47;;;;;;;7.70;5.78;;;;;;;;;;5124474;27;20055;-69
2022/09/26 08:48:29;;;;;;;9.13;6.22;;;;;;;;;;5121701;27;20177;-69
2022/09/26 08:51:00;;;;;;;7.90;6.03;;;;;;;;;;5106893;27;20046;-70
2022/09/26 08:53:28;;;;;;;8.55;6.05;;;;;;;;;;5119870;27;20050;-69
2022/09/26 08:55:55;;;;;;;8.55;6.10;;;;;;;;;;5120579;27;20035;-69
2022/09/26 08:58:26;;;;;;;8.68;6.55;;;;;;;;;;5107836;27;20031;-69
2022/09/26 09:01:01;;;;;;;9.20;6.22;;;;;;;;;;5117870;27;20027;-69
2022/09/26 09:03:30;;;;;;;13.65;7.05;;;;;;;;;;5119190;27;20023;-68
2022/09/26 09:06:06;;;;;;;11.13;6.80;;;;;;;;;;5115364;27;20031;-69
2022/09/26 09:08:31;;;;;;;10.77;7.32;;;;;;;;;;5100759;27;20039;-69
2022/09/26 09:11:01;;;;;;;10.50;7.20;;;;;;;;;;5109719;27;20088;-68
2022/09/26 09:13:26;;;;;;;;;;;;;;;;;;5104491;27;20750;-69
2022/09/26 09:15:59;;;;;;;10.50;7.17;;;;;;;;;;5120772;27;19954;-69
2022/09/26 09:18:30;;;;;;;10.60;7.00;;;;;;;;;;5116685;27;20023;-69
2022/09/26 09:20:57;;;;;;;11.80;6.68;;;;;;;;;;5119983;27;20038;-69
2022/09/26 09:23:26;;;;;;;12.95;7.60;;;;;;;;;;5121210;27;20536;-69
2022/09/26 09:25:54;;;;;;;11.68;6.97;;;;;;;;;;5112964;27;20043;-68
2022/09/26 09:28:22;;;;;;;11.15;7.10;;;;;;;;;;5120056;27;20046;-68
2022/09/26 09:30:49;;;;;;;14.13;7.20;;;;;;;;;;5119048;27;20031;-68
2022/09/26 09:33:28;;;;;;;12.63;6.93;;;;;;;;;;5122697;27;20080;-68
2022/09/26 09:36:05;;;;;;;16.20;7.40;;;;;;;17.51;nan;99864.59;5117795;27;20027;-69
2022/09/26 09:38:32;;;;;;;9.73;6.93;;;;;;;;;;5115954;27;20020;-69
2022/09/26 09:41:10;;;;;;;10.23;7.60;;;;;;;;;;5123148;27;20998;-69
2022/09/26 09:43:35;;;;;;;10.05;6.95;;;;;;;;;;5119836;27;20024;-69
2022/09/26 09:46:03;;;;;;;7.77;6.63;;;;;;;;;;5121435;27;20045;-68
2022/09/26 09:48:28;;;;;;;13.43;7.55;;;;;;;;;;5121295;27;20093;-69
2022/09/26 09:50:57;;;;;;;15.88;9.43;;;;;;;;;;5120770;27;20081;-68
2022/09/26 09:53:31;;;;;;;17.20;9.30;;;;;;;;;;5118648;27;20019;-69
2022/09/26 09:55:59;;;;;;;13.05;8.43;;;;;;;;;;5114327;27;20027;-70
2022/09/26 09:58:24;;;;;;;10.95;7.90;;;;;;;;;;5116718;27;20019;-69
2022/09/26 10:01:05;;;;;;;10.70;7.83;;;;;;;;;;5118123;27;20023;-70
2022/09/26 10:03:30;;;;;;;10.75;7.70;;;;;;;;;;5114901;27;20332;-70
2022/09/26 10:05:59;;;;;;;16.13;8.47;;;;;;;18.30;nan;99824.16;5120855;27;20019;-69
2022/09/26 10:08:41;;;;;;;12.80;8.55;;;;;;;;;;5105216;27;20790;-69
2022/09/26 10:11:27;;;;;;;12.23;8.05;;;;;;;18.52;nan;99811.00;5104754;27;20046;-69
2022/09/26 10:13:54;;;;;;;11.43;7.85;;;;;;;;;;5122926;27;20366;-68
2022/09/26 10:16:20;;;;;;;14.07;8.38;;;;;;;;;;5120465;27;20795;-69
2022/09/26 10:18:53;;;;;;;10.93;7.47;;;;;;;18.69;nan;99803.22;5106548;27;20085;-69
2022/09/26 10:21:20;;;;;;;11.25;7.97;;;;;;;18.70;nan;99788.81;5103930;27;20019;-69
2022/09/26 10:23:46;;;;;;;10.55;7.20;;;;;;;;;;5116540;27;20065;-69
2022/09/26 10:26:12;;;;;;;11.82;7.18;;;;;;;;;;5113462;27;20040;-69
2022/09/26 10:28:48;;;;;;;10.13;6.35;;;;;;;18.87;nan;99806.16;5113059;27;20024;-69
2022/09/26 10:31:28;;;;;;;7.72;6.07;;;;;;;18.94;nan;99803.91;5115661;27;20016;-69
2022/09/26 10:34:04;;;;;;;8.80;6.88;;;;;;;18.97;nan;99755.28;5119019;27;20046;-69
2022/09/26 10:36:30;;;;;;;7.65;6.35;;;;;;;19.04;nan;99774.34;5118626;27;20081;-69
2022/09/26 10:41:44;;;;;;;9.57;6.70;;;;;;;;;;5117320;27;20031;-69
2022/09/26 10:44:21;;;;;;;9.52;6.65;;;;;;;19.12;nan;99740.84;5115021;27;20027;-68
2022/09/26 10:46:50;;;;;;;8.35;6.30;;;;;;;19.18;nan;99762.88;5112461;27;20392;-68
2022/09/26 10:49:16;;;;;;;8.43;6.33;;;;;;;;;;5099168;27;20080;-69
2022/09/26 10:51:50;;;;;;;12.15;6.10;;;;;;;19.21;nan;99746.28;5114511;27;20059;-74
2022/09/26 10:54:20;;;;;;;11.98;6.50;;;;;;;;;;5117802;27;20019;-73
2022/09/26 10:56:49;;;;;;;11.48;6.72;;;;;;;19.37;nan;99763.56;5118577;27;20548;-73
2022/09/26 10:59:16;;;;;;;11.95;6.05;;;;;;;;;;5117036;27;20598;-73
2022/09/26 11:01:45;;;;;;;6.55;5.85;;;;;;;19.46;nan;99743.06;5122358;27;20020;-73
2022/09/26 11:05:55;;;;;;;;;;;;;;;19.54;nan;99741.59;5117782;27;20094;-73
2022/09/26 11:07:02;;;;;;;7.28;5.55;;;;;;;;;;5120324;27;20383;-74
2022/09/26 11:09:29;;;;;;;9.35;5.57;;;;;;;19.61;nan;99759.84;5118214;27;20031;-74
2022/09/26 11:11:55;;;;;;;14.27;5.65;;;;;;;19.59;nan;99757.50;5119678;27;20040;-74
2022/09/26 11:14:27;;;;;;;7.90;5.32;;;;;;;;;;5117343;27;20500;-73
2022/09/26 11:16:54;;;;;;;6.30;4.65;;;;;;;19.64;nan;99752.03;5119294;27;20484;-73
2022/09/26 11:19:26;;;;;;;6.80;5.00;;;;;;;19.67;nan;99750.63;5122361;27;20027;-73
2022/09/26 11:21:54;;;;;;;13.05;5.55;;;;;;;19.68;nan;99699.63;5120729;27;20049;-73
2022/09/26 11:24:29;;;;;;;5.83;4.77;;;;;;;19.57;nan;99751.66;5119699;27;20012;-73
2022/09/26 11:27:18;;;;;;;6.15;4.70;;;;;;;19.77;nan;99723.72;5123386;28;20375;-73
2022/09/26 11:29:43;;;;;;;5.78;4.30;;;;;;;;;;5116631;27;20027;-73
2022/09/26 11:32:14;;;;;;;7.07;4.87;;;;;;;19.87;nan;99712.81;5121806;28;20027;-73
2022/09/26 11:34:39;;;;;;;7.55;4.88;;;;;;;19.85;nan;99653.53;5118802;28;20325;-73
2022/09/26 11:37:29;;;;;;;5.32;4.55;;;;;;;19.91;nan;99700.41;5115775;28;20031;-73
2022/09/26 11:40:11;;;;;;;5.75;4.53;;;;;;;19.93;nan;99714.25;5099557;28;20031;-73
2022/09/26 11:42:46;;;;;;;6.70;5.07;;;;;;;19.96;nan;99702.16;5116712;28;20126;-73
2022/09/26 11:45:19;;;;;;;5.55;4.90;;;;;;;19.98;nan;99708.00;5120390;28;20043;-74
2022/09/26 11:48:25;;;;;;;6.20;4.45;;;;;;;19.97;nan;99669.03;5102885;28;20062;-73
2022/09/26 11:50:55;;;;;;;5.80;5.05;;;;;;;20.02;nan;99821.22;5098071;28;20481;-73
2022/09/26 11:53:33;;;;;;;7.22;4.63;;;;;;;20.04;nan;99701.44;5115138;28;20015;-73
2022/09/26 11:56:24;;;;;;;8.48;4.97;;;;;;;;;;5118625;28;20027;-73
2022/09/26 11:59:05;;;;;;;6.53;5.15;;;;;;;20.12;nan;99692.69;5107070;28;20033;-73
2022/09/26 12:01:54;;;;;;;6.93;4.90;;;;;;;20.14;nan;99677.13;5107409;28;20092;-73
2022/09/26 12:04:26;;;;;;;8.48;5.28;;;;;;;20.19;nan;99698.38;5113961;28;20042;-73
2022/09/26 12:07:06;;;;;;;6.30;4.53;;;;;;;20.23;nan;99687.06;5115592;28;20489;-73
2022/09/26 12:09:59;;;;;;;7.63;5.03;;;;;;;20.24;nan;99697.47;5123093;28;20035;-73
2022/09/26 12:12:31;;;;;;;9.05;4.18;;;;;;;20.24;nan;99688.66;5109460;27;20755;-73
2022/09/26 12:15:07;;;;;;;5.78;4.80;;;;;;;20.28;nan;99701.13;5124540;27;20020;-73
2022/09/26 12:18:11;;;;;;;5.03;4.53;;;;;;;20.28;nan;99695.75;5125535;27;20026;-73
2022/09/26 12:20:53;;;;;;;6.50;4.43;;;;;;;20.25;nan;99684.88;5120301;27;20449;-73
2022/09/26 12:23:22;;;;;;;5.07;4.13;;;;;;;;;;5112435;27;20549;-70
2022/09/26 12:26:26;;;;;;;7.28;4.03;;;;;;;20.26;nan;99686.47;5124541;27;20070;-71
2022/09/26 12:29:05;;;;;;;4.88;4.38;;;;;;;20.24;nan;99678.75;5077752;27;20500;-67
2022/09/26 12:32:02;;;;;;;5.18;4.00;;;;;;;20.26;nan;99681.91;5121464;27;20027;-73
2022/09/26 12:34:39;;;;;;;5.10;3.90;;;;;;;20.23;nan;99671.81;5118755;27;20089;-74
2022/09/26 12:37:21;;;;;;;7.85;4.22;;;;;;;20.27;nan;99675.47;5120037;27;20042;-75
2022/09/26 12:40:09;;;;;;;7.35;4.05;;;;;;;20.25;nan;99647.44;5120602;27;20066;-74
2022/09/26 12:43:14;;;;;;;4.27;3.73;;;;;;;20.27;nan;99672.00;5118144;27;20063;-74
2022/09/26 12:46:07;;;;;;;5.57;3.97;;;;;;;20.28;nan;99677.06;5120896;27;20049;-74
2022/09/26 12:48:52;;;;;;;5.45;4.20;;;;;;;20.29;nan;99683.19;5119797;27;20128;-73
2022/09/26 12:51:21;;;;;;;5.28;4.65;;;;;;;20.28;nan;99674.38;5117340;27;20047;-73
2022/09/26 12:53:52;;;;;;;4.97;3.90;;;;;;;20.29;nan;99675.16;5115232;27;20019;-74
2022/09/26 12:56:46;;;;;;;7.43;4.57;;;;;;;20.29;nan;99661.78;5119549;27;20076;-73
2022/09/26 12:59:32;;;;;;;4.72;3.92;;;;;;;20.23;nan;99663.78;5098650;27;20123;-74
2022/09/26 13:02:07;;;;;;;7.00;4.30;;;;;;;20.28;nan;99649.50;5117283;27;20034;-74
2022/09/26 13:04:47;;;;;;;6.78;4.07;;;;;;;20.27;nan;99627.34;5114192;27;20031;-74
2022/09/26 13:07:34;;;;;;;7.32;4.18;;;;;;;20.27;nan;99615.84;5123859;27;20023;-74
2022/09/26 13:10:12;;;;;;;8.57;4.50;;;;;;;20.27;nan;99639.91;5106245;27;20118;-74
2022/09/26 13:12:59;;;;;;;8.07;4.57;;;;;;;20.26;nan;99625.78;5124182;27;20046;-74
2022/09/26 13:15:34;;;;;;;9.05;4.55;;;;;;;20.26;nan;99614.28;5118906;27;20385;-73
2022/09/26 13:18:11;;;;;;;6.93;4.57;;;;;;;20.25;nan;99636.75;5122300;27;20078;-74
2022/09/26 13:20:44;;;;;;;6.90;4.55;;;;;;;20.26;nan;99598.25;5121527;27;20023;-74
2022/09/26 13:23:25;;;;;;;5.35;4.60;;;;;;;20.24;nan;99632.53;5122794;27;20027;-73
2022/09/26 13:25:58;;;;;;;5.10;4.53;;;;;;;20.25;nan;99628.75;5123298;27;20043;-74
2022/09/26 13:28:37;;;;;;;7.20;4.70;;;;;;;20.28;nan;99617.41;5120215;27;20019;-73
2022/09/26 13:31:15;;;;;;;9.20;4.75;;;;;;;20.28;nan;99626.25;5104472;27;20031;-73
2022/09/26 13:33:47;;;;;;;8.25;4.88;;;;;;;20.28;nan;99604.06;5117437;27;20034;-72
2022/09/26 13:36:15;;;;;;;6.15;5.28;;;;;;;;;;5118751;27;21284;-72
2022/09/26 13:38:52;;;;;;;8.40;4.75;;;;;;;20.33;nan;99590.56;5124198;27;20093;-72
2022/09/26 13:41:38;;;;;;;7.75;5.55;;;;;;;20.35;nan;99593.69;5121260;27;20041;-71
2022/09/26 13:44:09;;;;;;;6.55;4.97;;;;;;;20.36;nan;99589.94;5120903;27;20019;-72
2022/09/26 13:47:03;;;;;;;5.50;4.53;;;;;;;20.36;nan;99587.28;5108226;27;20453;-73
2022/09/26 13:49:34;;;;;;;8.10;4.60;;;;;;;20.37;nan;99570.13;5120247;27;20358;-72
2022/09/26 13:52:11;;;;;;;5.15;4.53;;;;;;;20.39;nan;99571.38;5118153;27;20114;-74
2022/09/26 13:54:52;;;;;;;7.20;4.60;;;;;;;20.38;nan;99574.38;5115721;27;20106;-73
2022/09/26 13:57:48;;;;;;;8.57;4.60;;;;;;;20.43;nan;99574.22;5117786;27;20027;-71
2022/09/26 14:00:28;;;;;;;8.40;4.47;;;;;;;20.45;nan;99580.06;5116144;27;20405;-72
2022/09/26 14:03:12;;;;;;;7.90;4.97;;;;;;;20.46;nan;99584.31;5118335;27;20027;-72
2022/09/26 14:05:41;;;;;;;6.18;4.72;;;;;;;20.49;nan;99578.31;5118008;27;20045;-73
2022/09/26 14:11:17;;;;;;;10.95;5.25;;;;;;;20.52;nan;99564.34;5119685;27;20063;-70
2022/09/26 14:13:46;;;;;;;9.23;5.07;;;;;;;20.53;nan;99570.47;5119829;27;20426;-70
2022/09/26 14:16:27;;;;;;;7.03;4.53;;;;;;;;;;5115697;27;20026;-71
2022/09/26 14:18:57;;;;;;;6.05;4.55;;;;;;;20.59;nan;99575.41;5114206;27;20080;-71
2022/09/26 14:21:32;;;;;;;6.53;4.80;;;;;;;20.62;nan;99559.84;5117950;27;20100;-70
2022/09/26 14:24:19;;;;;;;5.53;4.55;;;;;;;20.62;nan;99591.94;5118429;27;20529;-69
2022/09/26 14:26:50;;;;;;;6.50;4.90;;;;;;;20.64;nan;99568.31;5117676;27;20062;-69